Time;durP1;ratioP1;P1;durP2;ratioP2;P2;SDS_P1;SDS_P2;PMS_P1;PMS_P2;Temp;Humidity;BMP_temperature;BMP_pressure;BME280_temperature;BME280_humidity;BME280_pressure;Samples;Min_cycle;Max_cycle;Signal;HPM_P1;HPM_P2
2022/02/10 00:05:36;;;;;;;17.17;9.50;;;;;;;6.66;100.00;100272.25;5116143;28;20353;-81
2022/02/10 00:37:11;;;;;;;14.00;9.35;;;;;;;6.72;100.00;100286.13;5115626;28;20039;-81
2022/02/10 00:42:40;;;;;;;15.15;9.93;;;;;;;6.60;100.00;100291.38;5115832;28;20046;-81
2022/02/10 00:45:26;;;;;;;19.10;10.95;;;;;;;6.59;100.00;100288.75;5115792;28;20043;-81
2022/02/10 00:48:12;;;;;;;12.40;8.43;;;;;;;6.66;100.00;100288.75;5115629;28;20036;-81
2022/02/10 00:50:58;;;;;;;15.48;9.73;;;;;;;6.66;100.00;100280.94;5101215;28;20039;-81
2022/02/10 00:53:45;;;;;;;14.82;10.05;;;;;;;6.69;100.00;100293.94;5115618;28;20137;-81
2022/02/10 00:56:31;;;;;;;16.63;9.05;;;;;;;6.62;100.00;100280.94;5101158;28;20330;-81
2022/02/10 01:07:03;;;;;;;15.63;9.77;;;;;;;6.64;100.00;100277.47;5115627;28;20061;-81
2022/02/10 01:12:03;;;;;;;19.30;10.52;;;;;;;6.53;100.00;100268.78;5115420;28;20035;-81
2022/02/10 01:29:42;;;;;;;14.80;8.70;;;;;;;5.89;100.00;100250.59;5115847;28;20039;-81
2022/02/10 01:32:27;;;;;;;16.33;9.27;;;;;;;5.82;100.00;100247.13;5115219;28;20133;-81
2022/02/10 01:35:17;;;;;;;14.35;9.00;;;;;;;5.80;100.00;100243.63;5115785;28;20039;-81
2022/02/10 01:38:02;;;;;;;14.35;8.57;;;;;;;5.75;100.00;100242.75;5115913;28;20051;-81
2022/02/10 01:42:01;;;;;;;13.45;8.15;;;;;;;5.56;100.00;100244.47;5117632;28;20059;-81
2022/02/10 02:05:39;;;;;;;13.48;7.57;;;;;;;5.11;100.00;100236.53;5118638;28;20457;-81
2022/02/10 02:08:27;;;;;;;13.57;9.10;;;;;;;4.98;100.00;100237.34;5104187;28;20445;-81
2022/02/10 02:11:11;;;;;;;17.52;9.95;;;;;;;4.90;100.00;100220.84;5118432;28;20054;-81
2022/02/10 02:13:55;;;;;;;14.43;8.95;;;;;;;4.87;100.00;100226.88;5119169;28;20063;-81
2022/02/10 02:16:45;;;;;;;12.90;8.07;;;;;;;4.76;100.00;100227.72;5119012;28;20047;-81
2022/02/10 02:19:32;;;;;;;13.73;8.23;;;;;;;4.78;100.00;100226.88;5118265;28;20044;-81
2022/02/10 02:22:18;;;;;;;11.70;7.63;;;;;;;4.71;100.00;100222.47;5117989;28;20373;-81
2022/02/10 02:25:03;;;;;;;14.93;9.13;;;;;;;4.56;100.00;100225.88;5118782;28;20035;-81
2022/02/10 02:27:55;;;;;;;15.05;8.77;;;;;;;4.42;100.00;100212.84;5118804;28;20097;-81
2022/02/10 02:30:51;;;;;;;14.18;8.30;;;;;;;4.38;100.00;100212.78;5118070;28;20039;-81
2022/02/10 03:06:49;;;;;;;16.42;9.55;;;;;;;3.47;100.00;100214.63;5117921;28;20039;-81
2022/02/10 03:09:40;;;;;;;17.73;9.18;;;;;;;3.60;100.00;100222.53;5117457;28;20051;-81
2022/02/10 03:12:24;;;;;;;15.18;8.68;;;;;;;3.73;100.00;100225.22;5102976;28;20452;-81
2022/02/10 03:15:20;;;;;;;13.10;8.18;;;;;;;3.67;100.00;100191.53;5102741;28;20039;-81
2022/02/10 04:06:56;;;;;;;14.75;9.40;;;;;;;4.92;100.00;100216.53;5116255;28;20361;-81
2022/02/10 04:13:10;;;;;;;12.97;8.07;;;;;;;4.96;100.00;100214.81;5116861;28;20047;-81
2022/02/10 04:16:04;;;;;;;16.80;9.57;;;;;;;4.91;100.00;100196.66;5116676;28;20110;-82
2022/02/10 04:25:28;;;;;;;15.20;9.65;;;;;;;5.02;100.00;100199.28;5116089;28;20043;-82
2022/02/10 04:43:15;;;;;;;23.42;15.25;;;;;;;4.67;100.00;100194.78;5116539;28;20070;-82
2022/02/10 05:00:57;;;;;;;201.63;92.03;;;;;;;4.32;100.00;100194.59;5100838;28;20468;-82
2022/02/10 05:16:31;;;;;;;45.42;26.75;;;;;;;4.36;100.00;100184.25;5118166;28;20096;-81
2022/02/10 05:19:43;;;;;;;38.77;22.30;;;;;;;4.36;100.00;100166.09;5120163;28;20069;-81
2022/02/10 05:34:29;;;;;;;30.10;17.73;;;;;;;4.45;100.00;100175.63;5119908;28;20078;-81
2022/02/10 05:37:17;;;;;;;32.60;16.70;;;;;;;4.55;100.00;100186.94;5119743;28;20047;-81
2022/02/10 05:40:06;;;;;;;25.58;14.38;;;;;;;4.58;100.00;100181.75;5104727;28;20040;-81
2022/02/10 05:43:20;;;;;;;24.77;13.90;;;;;;;4.57;100.00;100174.84;5119091;28;20044;-82
2022/02/10 06:46:37;;;;;;;46.85;26.38;;;;;;;3.75;100.00;100156.16;5118757;28;20356;-79
2022/02/10 06:55:32;;;;;;;65.35;48.47;;;;;;;3.62;100.00;100161.25;5117769;28;20040;-79
2022/02/10 07:10:46;;;;;;;39.88;24.80;;;;;;;4.39;100.00;100147.09;5118027;28;20349;-80
2022/02/10 07:52:42;;;;;;;21.85;14.73;;;;;;;6.14;100.00;100119.69;5116570;28;20050;-79
2022/02/10 08:04:44;;;;;;;19.77;12.77;;;;;;;6.54;100.00;100122.22;5116273;28;20040;-79
2022/02/10 08:49:57;;;;;;;20.48;12.30;;;;;;;7.60;100.00;100095.50;5113150;28;20044;-79
2022/02/10 09:04:38;;;;;;;42.72;21.63;;;;;;;7.67;100.00;100098.06;5116090;28;20051;-79
2022/02/10 09:55:52;;;;;;;47.03;28.60;;;;;;;9.05;100.00;100072.13;5115729;28;20498;-79
2022/02/10 09:59:01;;;;;;;35.65;23.17;;;;;;;8.95;100.00;100055.72;5115465;28;20050;-79
2022/02/10 10:02:12;;;;;;;33.53;23.38;;;;;;;9.07;100.00;100047.72;5117320;28;20046;-79
2022/02/10 10:05:04;;;;;;;36.85;25.92;;;;;;;9.16;100.00;100041.47;5119402;28;20120;-79
2022/02/10 10:08:07;;;;;;;32.80;19.30;;;;;;;9.15;100.00;100037.13;5119508;28;20040;-78
2022/02/10 10:11:24;;;;;;;31.38;17.67;;;;;;;9.32;100.00;100031.63;5119163;28;20055;-79
2022/02/10 10:23:13;;;;;;;28.00;14.25;;;;;;;9.47;100.00;100009.63;5118927;28;20073;-85
2022/02/10 10:45:51;;;;;;;17.05;10.35;;;;;;;10.01;100.00;99947.56;5118640;28;20437;-84
2022/02/10 10:56:30;;;;;;;11.85;7.28;;;;;;;10.00;100.00;99937.09;5117115;28;20044;-84
2022/02/10 11:37:36;;;;;;;9.10;5.35;;;;;;;11.54;100.00;99858.31;5116976;28;20044;-84
2022/02/10 11:40:07;;;;;;;12.00;5.30;;;;;;;11.74;100.00;99868.22;5114860;28;20059;-85
2022/02/10 11:43:30;;;;;;;7.07;5.20;;;;;;;11.84;100.00;99849.56;5117881;28;20119;-85
2022/02/10 14:14:58;;;;;;;33.63;16.88;;;;;;;11.68;100.00;99573.66;5117531;28;20040;-83
2022/02/10 14:17:46;;;;;;;11.32;7.72;;;;;;;11.54;100.00;99575.88;5118774;28;20043;-83
2022/02/10 14:20:55;;;;;;;10.75;6.20;;;;;;;11.62;100.00;99578.25;5116189;28;20042;-83
2022/02/10 14:26:34;;;;;;;64.25;26.42;;;;;;;11.43;100.00;99568.34;5119382;28;20043;-83
2022/02/10 14:29:18;;;;;;;75.47;30.80;;;;;;;11.43;100.00;99578.84;5117830;28;20338;-83
2022/02/10 14:32:03;;;;;;;129.27;51.65;;;;;;;11.36;100.00;99571.22;5118712;28;20373;-80
2022/02/10 14:34:52;;;;;;;113.03;46.28;;;;;;;11.25;100.00;99574.19;5103643;28;20035;-80
2022/02/10 14:37:53;;;;;;;26.13;12.70;;;;;;;11.20;100.00;99569.06;5117845;28;20040;-80
2022/02/10 15:17:49;;;;;;;;;;;;;;;10.19;100.00;99556.31;5086457;27;20056;-85
2022/02/10 16:19:19;;;;;;;16.40;10.48;;;;;;;9.26;100.00;99574.34;5116812;28;20337;-85
2022/02/10 16:22:11;;;;;;;22.30;11.18;;;;;;;9.36;100.00;99575.88;5115443;28;20051;-85
2022/02/10 16:25:01;;;;;;;23.17;10.27;;;;;;;9.41;100.00;99560.94;5115843;28;20039;-85
2022/02/10 16:27:50;;;;;;;22.58;12.98;;;;;;;9.40;100.00;99558.38;5116521;28;20055;-86
2022/02/10 16:30:37;;;;;;;28.33;15.45;;;;;;;9.49;100.00;99568.59;5101692;28;20044;-85
2022/02/10 16:33:21;;;;;;;22.58;10.85;;;;;;;9.58;100.00;99574.44;5116733;28;20104;-86
2022/02/10 16:36:08;;;;;;;22.98;11.55;;;;;;;9.53;100.00;99571.09;5101494;28;20043;-85
2022/02/10 16:38:53;;;;;;;17.15;9.30;;;;;;;9.63;100.00;99570.88;5115790;28;20050;-85
2022/02/10 16:41:38;;;;;;;13.30;8.18;;;;;;;9.57;100.00;99564.03;5115896;28;20507;-78
2022/02/10 16:44:23;;;;;;;14.60;7.55;;;;;;;9.68;100.00;99572.47;5100919;28;20047;-78
2022/02/10 16:47:10;;;;;;;10.75;6.25;;;;;;;9.54;100.00;99537.97;5101378;28;20047;-78
2022/02/10 16:49:55;;;;;;;13.65;10.27;;;;;;;9.72;100.00;99568.03;5115967;28;20430;-78
2022/02/10 16:52:45;;;;;;;10.23;6.53;;;;;;;9.72;100.00;99568.03;5115529;28;20068;-78
2022/02/10 16:58:36;;;;;;;13.13;7.10;;;;;;;9.61;100.00;99563.06;5115705;28;20063;-77
2022/02/10 17:04:37;;;;;;;22.90;10.88;;;;;;;9.64;100.00;99577.81;5115402;28;20495;-78
2022/02/10 17:17:20;;;;;;;23.40;12.10;;;;;;;9.47;100.00;99573.00;5118862;28;19927;-78
2022/02/10 17:20:10;;;;;;;20.90;12.15;;;;;;;9.43;100.00;99574.00;5118482;28;20043;-78
2022/02/10 17:26:06;;;;;;;27.83;13.98;;;;;;;9.51;100.00;99577.25;5120127;28;20039;-78
2022/02/10 17:28:51;;;;;;;24.27;11.18;;;;;;;9.51;99.83;99566.81;5119450;28;20051;-78
2022/02/10 17:31:45;;;;;;;21.50;10.45;;;;;;;9.44;99.70;99580.91;5119374;28;20043;-78
2022/02/10 17:46:53;;;;;;;21.63;10.57;;;;;;;9.45;100.00;99593.94;5119824;28;20043;-78
2022/02/10 17:52:56;;;;;;;21.35;10.77;;;;;;;9.43;100.00;99594.91;5119058;28;20380;-78
2022/02/10 17:55:40;;;;;;;20.73;10.23;;;;;;;9.42;100.00;99591.41;5119573;28;20044;-78
2022/02/10 17:58:24;;;;;;;21.15;10.40;;;;;;;9.38;100.00;99588.91;5119552;28;20058;-78
2022/02/10 18:01:11;;;;;;;22.65;11.07;;;;;;;9.30;100.00;99592.56;5118691;28;20040;-78
2022/02/10 18:03:55;;;;;;;22.05;11.82;;;;;;;9.31;100.00;99590.81;5119477;28;20055;-78
2022/02/10 18:06:45;;;;;;;19.33;9.57;;;;;;;9.38;100.00;99605.44;5119605;28;20040;-78
2022/02/10 18:15:18;;;;;;;14.73;7.32;;;;;;;9.34;99.11;99595.97;5118502;28;20349;-78
2022/02/10 18:18:11;;;;;;;10.32;6.22;;;;;;;9.09;99.93;99578.22;5118360;28;20068;-78
2022/02/10 18:21:07;;;;;;;12.85;6.65;;;;;;;9.30;98.62;99600.41;5118934;28;20437;-78
2022/02/10 19:11:46;;;;;;;10.70;5.45;;;;;;;8.98;100.00;99645.53;5118120;28;20375;-78
2022/02/10 19:14:35;;;;;;;9.18;5.55;;;;;;;8.98;100.00;99665.59;5103118;28;20148;-77
2022/02/10 19:17:25;;;;;;;14.23;7.93;;;;;;;8.94;100.00;99661.28;5115094;28;20035;-77
2022/02/10 19:20:10;;;;;;;11.50;7.28;;;;;;;8.85;100.00;99665.81;5117251;28;20039;-77
2022/02/10 19:22:55;;;;;;;14.50;7.30;;;;;;;8.87;100.00;99682.34;5097284;28;20059;-77
2022/02/10 19:25:39;;;;;;;16.13;7.47;;;;;;;8.78;100.00;99677.28;5097561;28;20036;-77
2022/02/10 19:28:24;;;;;;;22.52;12.68;;;;;;;8.78;100.00;99666.84;5082413;28;20495;-77
2022/02/10 19:31:10;;;;;;;14.68;8.82;;;;;;;8.72;100.00;99666.09;5114672;28;20050;-77
2022/02/10 19:33:55;;;;;;;24.80;10.40;;;;;;;8.68;100.00;99680.97;5114757;28;20055;-77
2022/02/10 19:36:39;;;;;;;16.30;9.35;;;;;;;8.72;100.00;99687.00;5115722;28;20453;-77
2022/02/10 19:39:25;;;;;;;11.50;7.10;;;;;;;8.63;100.00;99685.41;5099791;28;20051;-77
2022/02/10 19:42:10;;;;;;;17.38;8.80;;;;;;;8.68;100.00;99691.41;5115261;28;20036;-77
2022/02/10 19:44:59;;;;;;;12.70;7.35;;;;;;;8.70;100.00;99694.00;5100673;28;20039;-77
2022/02/10 19:47:44;;;;;;;19.42;9.20;;;;;;;8.53;100.00;99689.94;5115407;28;20112;-77
2022/02/10 19:50:30;;;;;;;13.57;7.82;;;;;;;8.57;100.00;99683.78;5115447;28;20046;-78
2022/02/10 19:53:14;;;;;;;18.77;9.02;;;;;;;8.51;100.00;99685.63;5116358;28;20039;-78
2022/02/10 19:55:59;;;;;;;13.80;9.98;;;;;;;8.52;100.00;99695.22;5116283;28;20101;-78
2022/02/10 19:58:44;;;;;;;17.67;10.60;;;;;;;8.55;100.00;99697.75;5116657;28;20110;-78
2022/02/10 20:01:28;;;;;;;11.20;7.38;;;;;;;8.45;100.00;99701.41;5116447;28;20039;-77
2022/02/10 20:04:12;;;;;;;15.68;8.55;;;;;;;8.30;100.00;99708.59;5101942;28;20147;-78
2022/02/10 20:06:57;;;;;;;14.07;8.88;;;;;;;8.28;100.00;99701.69;5116255;28;20464;-77
2022/02/10 20:09:41;;;;;;;15.68;9.20;;;;;;;8.13;100.00;99682.81;5117119;28;20039;-77
2022/02/10 20:12:26;;;;;;;16.67;8.80;;;;;;;8.07;100.00;99711.59;5116265;28;20353;-77
2022/02/10 20:15:12;;;;;;;17.60;9.48;;;;;;;8.19;100.00;99723.59;5116203;28;20039;-78
2022/02/10 20:17:58;;;;;;;14.43;8.13;;;;;;;8.20;100.00;99723.53;5116055;28;20043;-78
2022/02/10 20:20:45;;;;;;;12.85;7.78;;;;;;;8.08;100.00;99718.53;5116156;28;20119;-77
2022/02/10 20:23:33;;;;;;;12.98;8.18;;;;;;;8.16;100.00;99729.72;5116103;28;20047;-77
2022/02/10 20:26:18;;;;;;;18.20;7.40;;;;;;;8.19;100.00;99734.03;5115954;28;20126;-78
2022/02/10 20:29:02;;;;;;;12.35;8.18;;;;;;;8.11;100.00;99725.44;5115966;28;20062;-78
2022/02/10 20:31:47;;;;;;;16.15;8.77;;;;;;;8.02;100.00;99730.81;5116042;28;20050;-78
2022/02/10 20:34:33;;;;;;;12.65;7.50;;;;;;;7.97;100.00;99736.97;5115784;28;20051;-78
2022/02/10 20:37:17;;;;;;;12.73;7.70;;;;;;;7.89;100.00;99719.69;5115663;28;20039;-78
2022/02/10 20:40:04;;;;;;;15.88;8.35;;;;;;;7.94;100.00;99734.41;5115624;28;20077;-78
2022/02/10 20:42:48;;;;;;;17.02;8.80;;;;;;;7.92;100.00;99732.69;5101500;28;20369;-77
2022/02/10 20:45:34;;;;;;;22.23;11.27;;;;;;;7.84;100.00;99737.19;5114776;28;20433;-77
2022/02/10 20:48:19;;;;;;;14.57;9.10;;;;;;;7.92;100.00;99737.91;5100337;28;20342;-76
2022/02/10 20:51:06;;;;;;;14.00;8.75;;;;;;;7.86;100.00;99735.41;5114321;28;20040;-76
2022/02/10 20:53:52;;;;;;;17.92;10.23;;;;;;;7.87;100.00;99742.34;5099405;28;20345;-76
2022/02/10 20:56:36;;;;;;;16.92;9.50;;;;;;;7.89;100.00;99749.25;5114466;28;20040;-76
2022/02/10 20:59:37;;;;;;;16.20;10.45;;;;;;;7.89;100.00;99738.81;5099429;28;20055;-75
2022/02/10 21:02:31;;;;;;;24.00;14.90;;;;;;;7.93;100.00;99743.13;5114864;28;20036;-76
2022/02/10 21:05:27;;;;;;;16.23;9.95;;;;;;;7.86;100.00;99745.81;5114920;28;20046;-75
2022/02/10 21:09:04;;;;;;;18.00;9.00;;;;;;;7.98;100.00;99743.03;5114868;28;20040;-75
2022/02/10 21:11:18;;;;;;;14.48;9.05;;;;;;;7.92;100.00;99753.56;5113086;28;20083;-76
2022/02/10 21:14:07;;;;;;;10.40;7.75;;;;;;;7.96;100.00;99760.44;5101050;28;20326;-76
2022/02/10 21:16:51;;;;;;;15.35;8.98;;;;;;;7.89;100.00;99751.00;5115478;28;20047;-76
2022/02/10 21:19:38;;;;;;;13.75;8.88;;;;;;;7.97;100.00;99760.44;5115421;28;20123;-76
2022/02/10 21:22:22;;;;;;;12.85;8.13;;;;;;;8.02;100.00;99768.19;5115232;28;20068;-76
2022/02/10 21:27:53;;;;;;;15.07;8.60;;;;;;;7.89;100.00;99761.44;5115349;28;20433;-75
2022/02/10 21:30:38;;;;;;;17.63;9.52;;;;;;;7.95;100.00;99767.41;5116068;28;20039;-75
2022/02/10 21:40:00;;;;;;;20.45;11.50;;;;;;;7.87;100.00;99776.25;5115089;28;20109;-76
2022/02/10 22:06:45;;;;;;;2.97;1.83;;;;;;;5.96;100.00;99816.41;5098977;28;20040;-77
2022/02/10 22:21:23;;;;;;;4.53;3.22;;;;;;;5.90;100.00;99860.59;5098608;28;20044;-77
2022/02/10 22:24:11;;;;;;;3.30;2.50;;;;;;;5.89;100.00;99860.63;5083757;28;20063;-76
2022/02/10 22:26:55;;;;;;;3.47;2.90;;;;;;;5.88;100.00;99872.72;5097919;28;20044;-76
2022/02/10 22:29:48;;;;;;;4.32;3.17;;;;;;;5.84;100.00;99869.28;5083964;28;20036;-77
2022/02/10 22:35:51;;;;;;;3.63;2.85;;;;;;;5.73;100.00;99881.47;5072841;28;20121;-77
2022/02/10 22:38:36;;;;;;;2.53;2.10;;;;;;;5.61;100.00;99871.13;5083458;28;20048;-77
2022/02/10 22:41:21;;;;;;;9.05;2.58;;;;;;;5.59;100.00;99873.75;5098304;28;20043;-77
2022/02/10 22:44:05;;;;;;;3.40;2.15;;;;;;;5.60;100.00;99875.47;5097645;28;20112;-77
2022/02/10 22:46:50;;;;;;;2.42;1.85;;;;;;;5.46;100.00;99873.78;5098394;28;20048;-77
2022/02/10 22:49:35;;;;;;;2.40;1.80;;;;;;;5.44;100.00;99867.75;5097486;28;20130;-77
2022/02/10 22:52:20;;;;;;;3.45;2.45;;;;;;;5.53;100.00;99876.38;5098041;28;20036;-77
2022/02/10 22:55:06;;;;;;;3.95;2.72;;;;;;;5.48;100.00;99872.03;5097315;28;20036;-77
2022/02/10 22:57:50;;;;;;;4.60;3.08;;;;;;;5.50;100.00;99878.97;5097861;28;20044;-77
2022/02/10 23:00:46;;;;;;;3.80;2.88;;;;;;;5.47;100.00;99891.97;5097225;28;20097;-77
2022/02/10 23:03:36;;;;;;;3.85;2.80;;;;;;;5.43;100.00;99882.47;5097845;28;20050;-76
2022/02/10 23:06:20;;;;;;;2.80;2.42;;;;;;;5.47;100.00;99875.53;5082799;28;20358;-77
2022/02/10 23:09:27;;;;;;;3.67;2.47;;;;;;;5.38;100.00;99863.41;5096756;28;20074;-77
2022/02/10 23:12:12;;;;;;;5.10;2.72;;;;;;;5.53;100.00;99878.09;5097672;28;20032;-77
2022/02/10 23:14:57;;;;;;;3.30;2.38;;;;;;;5.49;100.00;99876.38;5097515;28;20466;-77
2022/02/10 23:17:41;;;;;;;8.32;3.45;;;;;;;5.53;100.00;99878.97;5082537;28;20048;-77
2022/02/10 23:20:26;;;;;;;5.40;3.35;;;;;;;5.59;100.00;99885.88;5082750;28;20097;-77
2022/02/10 23:23:12;;;;;;;4.55;2.95;;;;;;;5.66;100.00;99887.59;5097347;28;20048;-77
2022/02/10 23:25:58;;;;;;;5.95;3.15;;;;;;;5.72;100.00;99878.88;5082508;28;20036;-77
2022/02/10 23:28:46;;;;;;;13.70;6.63;;;;;;;5.75;100.00;99884.06;5097626;28;20346;-77
2022/02/10 23:31:32;;;;;;;17.10;8.38;;;;;;;5.72;100.00;99878.88;5096657;28;20096;-77
2022/02/10 23:34:16;;;;;;;10.48;5.05;;;;;;;5.72;100.00;99884.06;5096611;28;20392;-77
2022/02/10 23:37:01;;;;;;;7.60;4.03;;;;;;;5.63;100.00;99869.41;5097095;28;20503;-77
2022/02/10 23:39:47;;;;;;;7.10;4.10;;;;;;;5.63;100.00;99878.06;5096631;28;20089;-77
2022/02/10 23:42:33;;;;;;;8.38;4.63;;;;;;;5.57;100.00;99879.81;5096482;28;20044;-77
2022/02/10 23:45:23;;;;;;;14.60;7.63;;;;;;;5.58;100.00;99869.41;5097031;28;20090;-77
2022/02/10 23:48:08;;;;;;;24.63;14.68;;;;;;;5.61;100.00;99879.78;5097198;28;20127;-77
2022/02/10 23:50:52;;;;;;;20.88;13.63;;;;;;;5.60;100.00;99877.22;5067896;28;20055;-77
2022/02/10 23:53:38;;;;;;;12.35;7.95;;;;;;;5.62;100.00;99876.34;5096949;28;20097;-77
2022/02/10 23:56:28;;;;;;;12.45;6.85;;;;;;;5.63;100.00;99870.25;5097008;28;20043;-77
